Lenorah, Texas
Current Conditions -  °F | °C
As of 11:55 AM on Tuesday 21 Oct 2014 (Local Time) from KBPG Reporting Station
Scattered Clouds Scattered Clouds  
Wind Chill: 74°   Ceiling: Unl
Heat Index: 74°   Visibility: 10mi
Dew Point: 60°   Wind: 6mph
Humidity: 62%   Direction: 170°S
Pressure: 30.15"   Gusts: NA
Location:  32.3°N, 101.88°W
Report Text: KBPG 211655Z AUTO 17005KT 10SM SCT022 SCT035 23/16 A3015 RMK AO2 T02330156
Loading
Personal Weather Stations






























Interactive Weather Map New forecast layout! Learn more

10-Day Weather Forecast

Advertisements
Track Severe Weather on mobile